Time;durP1;ratioP1;P1;durP2;ratioP2;P2;SDS_P1;SDS_P2;PMS_P1;PMS_P2;Temp;Humidity;BMP_temperature;BMP_pressure;BME280_temperature;BME280_humidity;BME280_pressure;Samples;Min_cycle;Max_cycle;Signal;HPM_P1;HPM_P2
2023/11/10 00:02:20;;;;;;;4.28;1.00;;;;;;;-146.27;81.13;33130.66;5019438;28;20111;-72
2023/11/10 00:04:49;;;;;;;1.50;0.95;;;;;;;-146.27;80.62;33104.88;5026017;28;20033;-72
2023/11/10 00:07:14;;;;;;;3.53;1.17;;;;;;;-146.27;80.29;33140.59;5024026;28;20056;-72
2023/11/10 00:09:39;;;;;;;1.92;0.90;;;;;;;-146.27;81.41;33192.16;5027694;28;20047;-72
2023/11/10 00:12:05;;;;;;;3.85;1.02;;;;;;;-146.27;80.94;33144.56;5021261;28;20029;-71
2023/11/10 00:14:31;;;;;;;2.03;0.75;;;;;;;-146.27;80.77;33221.94;5037886;28;20399;-71
2023/11/10 00:16:56;;;;;;;1.60;0.75;;;;;;;-146.27;80.88;33170.34;5023684;28;20050;-72
2023/11/10 00:19:22;;;;;;;1.25;0.60;;;;;;;-146.27;80.65;33188.19;5024774;28;20034;-72
2023/11/10 00:21:50;;;;;;;3.97;0.80;;;;;;;-146.27;80.94;33160.44;5020893;28;20036;-72
2023/11/10 00:24:16;;;;;;;4.40;0.88;;;;;;;-146.27;81.07;33221.94;5016127;28;20022;-72
2023/11/10 00:26:41;;;;;;;0.90;0.52;;;;;;;-146.27;81.51;33231.84;5023279;28;20021;-70
2023/11/10 00:29:06;;;;;;;4.90;0.82;;;;;;;-146.27;82.03;33223.91;5011120;28;20053;-72
2023/11/10 00:31:33;;;;;;;4.45;0.95;;;;;;;-146.27;81.08;33152.50;5030179;28;20028;-71
2023/11/10 00:33:58;;;;;;;0.50;0.30;;;;;;;-146.27;81.21;33158.44;5028637;28;20025;-72
2023/11/10 00:36:24;;;;;;;0.50;0.30;;;;;;;-146.27;81.44;33182.25;5028351;28;20672;-72
2023/11/10 00:38:50;;;;;;;2.03;0.40;;;;;;;-146.27;81.10;33184.25;5027656;28;20029;-70
2023/11/10 00:41:15;;;;;;;1.40;0.50;;;;;;;-146.27;81.32;33184.25;5017937;28;20394;-72
2023/11/10 00:43:41;;;;;;;1.25;0.43;;;;;;;-146.27;81.81;33291.38;5031244;28;20052;-72
2023/11/10 00:46:06;;;;;;;2.15;0.40;;;;;;;-146.27;82.98;33331.06;5036077;28;20098;-72
2023/11/10 00:48:33;;;;;;;0.80;0.50;;;;;;;-146.27;81.81;33196.13;5032391;28;20025;-71
2023/11/10 00:50:59;;;;;;;2.08;0.65;;;;;;;-146.27;82.28;33210.03;5026036;28;20103;-71
2023/11/10 00:53:26;;;;;;;0.85;0.32;;;;;;;-146.27;82.52;33249.72;5010398;28;20022;-72
2023/11/10 00:55:53;;;;;;;1.77;0.70;;;;;;;-146.27;82.49;33247.72;5021314;28;20497;-71
2023/11/10 00:58:19;;;;;;;1.65;0.50;;;;;;;-146.27;82.52;33174.31;5022116;28;20037;-71
2023/11/10 01:00:44;;;;;;;2.63;0.75;;;;;;;-146.27;81.26;33140.59;5014782;28;20040;-72
2023/11/10 01:03:10;;;;;;;2.92;0.50;;;;;;;-146.27;81.22;33100.91;5023672;28;20100;-73
2023/11/10 01:05:36;;;;;;;0.93;0.70;;;;;;;-146.27;82.82;33192.16;5020725;28;20045;-72
2023/11/10 01:08:02;;;;;;;2.75;0.80;;;;;;;-146.27;81.64;33164.41;5022285;28;20110;-72
2023/11/10 01:10:27;;;;;;;2.60;0.65;;;;;;;-146.27;81.60;33146.53;5023128;28;20069;-71
2023/11/10 01:12:52;;;;;;;3.42;0.82;;;;;;;-146.27;82.22;33196.13;5016636;28;20538;-71
2023/11/10 01:15:18;;;;;;;5.15;0.77;;;;;;;-146.27;82.11;33162.41;5021752;28;20034;-71
2023/11/10 01:17:44;;;;;;;2.58;0.70;;;;;;;-146.27;81.33;33100.91;5009192;28;20045;-71
2023/11/10 01:20:11;;;;;;;0.85;0.60;;;;;;;-146.27;81.96;33092.97;5019190;28;20128;-73
2023/11/10 01:22:37;;;;;;;3.42;0.93;;;;;;;-146.27;82.11;33136.63;5017415;28;20057;-72
2023/11/10 01:25:05;;;;;;;2.20;0.80;;;;;;;-146.27;82.15;33168.38;5022893;28;20529;-71
2023/11/10 01:27:30;;;;;;;3.65;1.00;;;;;;;-146.27;81.78;33116.78;5022954;28;20032;-72
2023/11/10 01:29:57;;;;;;;3.05;1.13;;;;;;;-146.27;82.27;33130.66;5019061;28;20030;-70
2023/11/10 01:32:22;;;;;;;3.88;1.02;;;;;;;-146.27;83.08;33204.06;5025431;28;20032;-71
2023/11/10 01:34:47;;;;;;;2.30;0.90;;;;;;;-146.27;83.12;33243.75;5020739;28;20473;-71
2023/11/10 01:37:13;;;;;;;5.93;1.58;;;;;;;-146.27;82.36;33168.38;5030985;28;20047;-72
2023/11/10 01:39:38;;;;;;;3.97;1.10;;;;;;;-146.27;82.34;33120.75;5021205;28;20135;-72
2023/11/10 01:42:04;;;;;;;4.50;1.35;;;;;;;-146.27;82.18;33144.56;5011696;28;20090;-68
2023/11/10 01:44:31;;;;;;;5.35;1.75;;;;;;;-146.27;82.08;33152.50;5023194;28;20038;-68
2023/11/10 01:46:58;;;;;;;4.72;1.25;;;;;;;-146.27;82.00;33172.34;5028459;28;20048;-67
2023/11/10 01:49:24;;;;;;;2.10;1.30;;;;;;;-146.27;82.48;33176.31;5020486;28;20029;-68
2023/11/10 01:51:53;;;;;;;2.50;1.30;;;;;;;-146.27;82.00;33124.72;5025247;28;20045;-66
2023/11/10 01:54:23;;;;;;;2.38;0.95;;;;;;;-146.27;82.44;33140.59;5022483;28;20052;-68
2023/11/10 01:56:51;;;;;;;1.90;1.00;;;;;;;-146.27;81.90;33166.38;5019265;28;20037;-67
2023/11/10 01:59:17;;;;;;;7.25;1.10;;;;;;;-146.27;82.38;33188.19;5019454;28;20060;-67
2023/11/10 02:01:43;;;;;;;3.05;0.80;;;;;;;-146.27;82.22;33154.47;5020588;28;20040;-68
2023/11/10 02:04:12;;;;;;;2.55;0.98;;;;;;;-146.27;82.35;33184.25;5040988;28;20133;-68
2023/11/10 02:06:41;;;;;;;4.10;1.10;;;;;;;-146.27;82.41;33140.59;5035698;28;20082;-68
2023/11/10 02:09:07;;;;;;;2.22;0.80;;;;;;;-146.27;82.38;33160.44;5033795;28;20021;-68
2023/11/10 02:11:33;;;;;;;1.80;0.55;;;;;;;-146.27;82.71;33210.03;5028873;28;20524;-67
2023/11/10 02:14:02;;;;;;;1.38;0.57;;;;;;;-146.27;82.49;33104.88;5037779;28;20113;-68
2023/11/10 02:16:28;;;;;;;3.47;0.82;;;;;;;-146.27;81.91;33168.38;5041248;28;20628;-68
2023/11/10 02:18:57;;;;;;;2.83;0.50;;;;;;;-146.27;82.39;33188.19;5024305;28;20103;-68
2023/11/10 02:21:23;;;;;;;1.92;0.60;;;;;;;-146.27;83.24;33208.03;5030901;28;20103;-67
2023/11/10 02:23:52;;;;;;;2.92;0.73;;;;;;;-146.27;82.51;33067.19;5029746;28;20083;-68
2023/11/10 02:26:17;;;;;;;1.08;0.57;;;;;;;-146.27;83.31;33221.94;5022807;28;20103;-67
2023/11/10 02:28:43;;;;;;;3.10;0.75;;;;;;;-146.27;84.25;33221.94;5019251;28;20072;-68
2023/11/10 02:31:08;;;;;;;0.82;0.60;;;;;;;-146.27;84.42;33261.63;5027711;28;20751;-68
2023/11/10 02:33:33;;;;;;;2.65;0.70;;;;;;;-146.27;84.89;33227.88;5040094;28;20160;-67
2023/11/10 02:36:00;;;;;;;6.40;0.95;;;;;;;-146.27;85.00;33206.06;5030328;28;20064;-67
2023/11/10 02:38:25;;;;;;;7.18;1.20;;;;;;;-146.27;85.22;33210.03;5024547;28;20057;-68
2023/11/10 02:40:51;;;;;;;3.20;0.85;;;;;;;-146.27;84.26;33136.63;5034602;28;20080;-67
2023/11/10 02:43:17;;;;;;;3.05;1.10;;;;;;;-146.27;83.86;33094.97;5040925;28;20029;-69
2023/11/10 02:45:42;;;;;;;5.68;1.15;;;;;;;-146.27;85.93;33269.56;5032190;28;20030;-69
2023/11/10 02:48:09;;;;;;;1.42;1.02;;;;;;;-146.27;85.18;33164.41;5036375;28;20051;-67
2023/11/10 02:50:37;;;;;;;7.50;1.20;;;;;;;-146.27;84.57;33118.75;5034328;28;20052;-68
2023/11/10 02:53:02;;;;;;;7.00;1.40;;;;;;;-146.27;84.59;33164.41;5025769;28;20029;-68
2023/11/10 02:55:28;;;;;;;5.28;1.20;;;;;;;-146.27;84.84;33148.53;5023991;28;20483;-67
2023/11/10 02:57:53;;;;;;;5.60;1.85;;;;;;;-146.27;83.85;33061.22;5036652;28;20092;-68
2023/11/10 03:00:19;;;;;;;4.43;1.35;;;;;;;-146.27;85.43;33217.97;5027499;28;20029;-68
2023/11/10 03:02:44;;;;;;;2.42;1.30;;;;;;;-146.27;85.10;33100.91;5028503;28;20037;-67
2023/11/10 03:05:10;;;;;;;5.30;1.98;;;;;;;-146.27;85.85;33180.28;5035782;28;20477;-68
2023/11/10 03:07:36;;;;;;;7.00;1.80;;;;;;;-146.27;84.57;33061.22;5021340;28;20025;-69
2023/11/10 03:10:02;;;;;;;5.03;1.95;;;;;;;-146.27;84.20;33065.19;5032276;28;20026;-66
2023/11/10 03:12:29;;;;;;;3.72;1.90;;;;;;;-146.27;85.26;33120.75;5028975;28;20033;-68
2023/11/10 03:14:55;;;;;;;10.60;2.00;;;;;;;-146.27;84.98;33164.41;5034681;28;20033;-68
2023/11/10 03:17:20;;;;;;;4.55;1.92;;;;;;;-146.27;84.42;33065.19;5022743;28;20071;-68
2023/11/10 03:19:46;;;;;;;6.97;2.13;;;;;;;-146.27;84.77;33094.97;5036967;28;20256;-68
2023/11/10 03:22:11;;;;;;;5.47;2.70;;;;;;;-146.27;85.24;33188.19;5017535;28;20030;-68
2023/11/10 03:24:37;;;;;;;7.15;1.92;;;;;;;-146.27;84.09;33067.19;5027737;28;20025;-68
2023/11/10 03:27:03;;;;;;;5.60;2.60;;;;;;;-146.27;85.41;33160.44;5023635;28;20439;-67
2023/11/10 03:29:28;;;;;;;6.13;2.50;;;;;;;-146.27;84.75;33081.06;5023793;28;20677;-69
2023/11/10 03:31:53;;;;;;;5.05;2.30;;;;;;;-146.27;84.86;33120.75;5028708;28;20120;-68
2023/11/10 03:34:19;;;;;;;6.63;2.15;;;;;;;-146.27;84.45;33094.97;5034839;28;20029;-67
2023/11/10 03:36:45;;;;;;;6.80;1.95;;;;;;;-146.27;84.94;33102.88;5032551;28;20029;-68
2023/11/10 03:39:10;;;;;;;9.32;1.70;;;;;;;-146.27;83.87;32991.78;5022934;28;20025;-67
2023/11/10 03:41:37;;;;;;;3.13;1.13;;;;;;;-146.27;84.15;33132.66;5025310;28;20038;-66
2023/11/10 03:44:03;;;;;;;6.85;1.40;;;;;;;-146.27;83.83;32993.78;5023357;28;20493;-67
2023/11/10 03:46:29;;;;;;;6.28;1.60;;;;;;;-146.27;84.10;33073.13;5033098;28;20037;-66
2023/11/10 03:48:54;;;;;;;3.28;1.27;;;;;;;-146.27;83.69;33045.34;5029985;28;20041;-68
2023/11/10 03:51:19;;;;;;;5.53;1.38;;;;;;;-146.27;84.79;33106.84;5039316;28;20105;-67
2023/11/10 03:53:45;;;;;;;5.40;1.20;;;;;;;-146.27;85.86;33200.09;5027748;28;20022;-66
2023/11/10 03:56:10;;;;;;;4.90;1.30;;;;;;;-146.27;85.61;33112.81;5033880;28;20105;-67
2023/11/10 03:58:36;;;;;;;7.00;1.20;;;;;;;-146.27;84.99;33102.88;5032905;28;20445;-66
2023/11/10 04:01:07;;;;;;;5.82;1.35;;;;;;;-146.27;85.01;33089.00;5041563;28;20029;-72
2023/11/10 04:03:32;;;;;;;3.47;1.30;;;;;;;-146.27;85.11;33144.56;5046651;28;20477;-72
2023/11/10 04:05:57;;;;;;;6.40;1.33;;;;;;;-146.27;85.28;33073.13;5021452;28;20087;-72
2023/11/10 04:08:23;;;;;;;5.95;2.35;;;;;;;-146.27;85.02;33089.00;5020357;28;21594;-72
2023/11/10 04:10:48;;;;;;;6.20;1.30;;;;;;;-146.27;85.59;33136.63;5034210;28;20499;-72
2023/11/10 04:13:14;;;;;;;6.13;1.25;;;;;;;-146.27;85.54;33132.66;5030803;28;20021;-71
2023/11/10 04:15:39;;;;;;;8.85;1.90;;;;;;;-146.27;85.47;33112.81;5029272;28;20059;-71
2023/11/10 04:18:04;;;;;;;6.35;1.40;;;;;;;-146.27;85.59;33098.94;5031177;28;20049;-71
2023/11/10 04:20:30;;;;;;;5.45;1.05;;;;;;;-146.27;85.41;33108.84;5025406;28;20052;-71
2023/11/10 04:22:55;;;;;;;3.75;1.30;;;;;;;-146.27;85.23;33087.03;5022829;28;20079;-72
2023/11/10 04:25:21;;;;;;;6.53;1.30;;;;;;;-146.27;84.90;33089.00;5033389;28;20030;-71
2023/11/10 04:27:46;;;;;;;4.68;1.27;;;;;;;-146.27;86.67;33271.53;5027115;28;20507;-71
2023/11/10 04:30:12;;;;;;;5.75;1.67;;;;;;;-146.27;85.56;33081.06;5037989;28;20494;-71
2023/11/10 04:32:37;;;;;;;6.90;1.35;;;;;;;-146.27;85.15;33134.63;5028210;28;20028;-71
2023/11/10 04:35:03;;;;;;;6.63;1.60;;;;;;;-146.27;85.30;33102.88;5030075;28;20107;-71
2023/11/10 04:37:29;;;;;;;11.77;1.70;;;;;;;-146.27;86.50;33210.03;5026873;28;20092;-72
2023/11/10 04:39:54;;;;;;;3.80;1.27;;;;;;;-146.27;86.55;33186.22;5035493;28;20087;-72
2023/11/10 04:42:19;;;;;;;3.85;1.35;;;;;;;-146.27;86.35;33204.06;5031232;28;20017;-72
2023/11/10 04:44:45;;;;;;;12.18;1.98;;;;;;;-146.27;86.62;33206.06;5026938;28;20375;-71
2023/11/10 04:47:11;;;;;;;7.38;1.73;;;;;;;-146.27;85.46;33100.91;5029421;28;20095;-72
2023/11/10 04:49:38;;;;;;;6.20;1.20;;;;;;;-146.27;84.73;33104.88;5019679;28;20064;-72
2023/11/10 04:52:04;;;;;;;8.80;1.85;;;;;;;-146.27;84.95;33160.44;5014984;28;20025;-71
2023/11/10 04:54:30;;;;;;;5.18;1.75;;;;;;;-146.27;87.26;33263.59;5024088;28;20038;-71
2023/11/10 04:56:55;;;;;;;6.55;1.90;;;;;;;-146.27;86.22;33200.09;5035474;28;20874;-72
2023/11/10 04:59:21;;;;;;;3.92;1.70;;;;;;;-146.27;86.05;33144.56;5036138;28;20024;-72
2023/11/10 05:01:48;;;;;;;5.00;1.80;;;;;;;-146.27;87.16;33239.78;5023531;28;20041;-72
2023/11/10 05:04:13;;;;;;;8.90;2.10;;;;;;;-146.27;86.26;33184.25;5016731;28;20058;-72
2023/11/10 05:06:40;;;;;;;7.40;2.13;;;;;;;-146.27;85.41;33132.66;5019862;28;20029;-71
2023/11/10 05:09:07;;;;;;;8.63;1.73;;;;;;;-146.27;86.04;33160.44;5026594;28;20030;-72
2023/11/10 05:11:34;;;;;;;5.05;2.05;;;;;;;-146.27;85.28;33079.09;5037096;28;20056;-71
2023/11/10 05:13:59;;;;;;;6.00;2.15;;;;;;;-146.27;85.13;33098.94;5025774;28;20108;-71
2023/11/10 05:16:25;;;;;;;8.95;1.98;;;;;;;-146.27;84.98;33120.75;5026174;28;20125;-71
2023/11/10 05:18:50;;;;;;;5.35;1.75;;;;;;;-146.27;84.93;33118.75;5025298;28;20086;-72
2023/11/10 05:21:17;;;;;;;5.22;1.58;;;;;;;-146.27;84.96;33162.41;5021235;28;20511;-71
2023/11/10 05:23:43;;;;;;;5.03;1.42;;;;;;;-146.27;85.42;33160.44;5027344;28;20061;-72
2023/11/10 05:26:09;;;;;;;6.82;1.67;;;;;;;-146.27;85.07;33102.88;5031447;28;20022;-72
2023/11/10 05:28:35;;;;;;;7.78;2.83;;;;;;;-146.27;84.92;33077.09;5028709;28;20095;-71
2023/11/10 05:31:00;;;;;;;5.70;1.75;;;;;;;-146.27;85.70;33212.00;5034517;28;20025;-72
2023/11/10 05:33:26;;;;;;;12.15;1.60;;;;;;;-146.27;85.13;33100.91;5021879;28;20443;-72
2023/11/10 05:35:51;;;;;;;6.60;1.65;;;;;;;-146.27;85.50;33104.88;5025699;28;20028;-72
2023/11/10 05:38:17;;;;;;;5.90;1.52;;;;;;;-146.27;84.61;33025.50;5026792;28;20025;-72
2023/11/10 05:40:42;;;;;;;10.55;1.80;;;;;;;-146.27;85.48;33116.78;5027611;28;20025;-71
2023/11/10 05:43:08;;;;;;;3.92;1.30;;;;;;;-146.27;86.98;33172.34;5032146;28;20022;-72
2023/11/10 05:45:34;;;;;;;5.65;1.63;;;;;;;-146.27;85.90;33057.25;5021368;28;20025;-70
2023/11/10 05:47:59;;;;;;;7.28;1.40;;;;;;;-146.27;85.77;33106.84;5024551;28;20029;-70
2023/11/10 05:50:25;;;;;;;5.70;1.30;;;;;;;-146.27;86.65;33077.09;5029605;28;20088;-72
2023/11/10 05:52:50;;;;;;;7.70;1.63;;;;;;;-146.27;86.77;33087.03;5031463;28;20029;-72
2023/11/10 05:55:16;;;;;;;6.15;1.52;;;;;;;-146.27;86.42;33059.25;5028523;28;20032;-71
2023/11/10 05:57:42;;;;;;;9.68;1.80;;;;;;;-146.27;87.59;33096.94;5014494;28;20025;-71
2023/11/10 06:00:08;;;;;;;5.22;2.42;;;;;;;-146.27;86.93;33055.28;5018728;28;20036;-71
2023/11/10 06:02:33;;;;;;;8.18;1.17;;;;;;;-146.27;87.72;33138.59;5010607;28;21575;-71
2023/11/10 06:04:59;;;;;;;5.40;1.65;;;;;;;-146.27;88.17;33140.59;5015416;28;20033;-71
2023/11/10 06:07:24;;;;;;;6.28;1.77;;;;;;;-146.27;87.42;33091.00;5029831;28;20512;-72
2023/11/10 06:09:50;;;;;;;6.72;1.65;;;;;;;-146.27;88.94;33180.28;5031969;28;20176;-72
2023/11/10 06:12:17;;;;;;;11.07;1.65;;;;;;;-146.27;88.23;33108.84;5030821;28;20034;-72
2023/11/10 06:14:42;;;;;;;11.50;2.15;;;;;;;-146.27;88.70;33202.09;5032549;28;20741;-72
2023/11/10 06:17:07;;;;;;;7.10;1.40;;;;;;;-146.27;88.21;33126.69;5026459;28;20042;-72
2023/11/10 06:19:33;;;;;;;5.22;1.27;;;;;;;-146.27;88.16;33208.03;5028556;28;20061;-73
2023/11/10 06:21:58;;;;;;;8.90;1.73;;;;;;;-146.27;87.77;33142.56;5033704;28;20037;-73
2023/11/10 06:24:24;;;;;;;8.63;1.60;;;;;;;-146.27;88.26;33138.59;5031936;28;20744;-72
2023/11/10 06:26:50;;;;;;;7.32;1.60;;;;;;;-146.27;87.86;33100.91;5030720;28;20017;-72
2023/11/10 06:29:18;;;;;;;6.05;1.13;;;;;;;-146.27;88.75;33182.25;5019914;28;20026;-72
2023/11/10 06:31:45;;;;;;;1.75;0.85;;;;;;;-146.27;89.55;33251.69;5028031;28;20025;-72
2023/11/10 06:34:10;;;;;;;9.35;1.92;;;;;;;-146.27;88.51;33128.69;5018445;28;20025;-71
2023/11/10 06:36:35;;;;;;;4.93;1.33;;;;;;;-146.27;89.49;33192.16;5018657;28;20033;-71
2023/11/10 06:39:02;;;;;;;4.97;1.50;;;;;;;-146.27;89.49;33212.00;5024059;28;20144;-70
2023/11/10 06:41:28;;;;;;;4.45;1.45;;;;;;;-146.27;89.39;33227.88;5021711;28;20037;-72
2023/11/10 06:43:53;;;;;;;5.70;1.23;;;;;;;-146.27;88.54;33148.53;5030951;28;20044;-71
2023/11/10 06:46:20;;;;;;;8.93;1.98;;;;;;;-146.27;88.48;33122.72;5029718;28;20025;-72
2023/11/10 06:48:46;;;;;;;7.05;1.48;;;;;;;-146.27;88.65;33196.13;5029611;28;20029;-72
2023/11/10 06:51:12;;;;;;;5.22;1.13;;;;;;;-146.27;89.11;33267.56;5030433;28;20029;-71
2023/11/10 06:53:37;;;;;;;5.65;1.27;;;;;;;-146.27;88.45;33152.50;5027922;28;20120;-72
2023/11/10 06:56:03;;;;;;;7.20;1.45;;;;;;;-146.27;88.38;33204.06;5031768;28;20131;-71
2023/11/10 06:58:29;;;;;;;5.53;1.75;;;;;;;-146.27;88.42;33200.09;5026686;28;20083;-73
2023/11/10 07:00:54;;;;;;;8.82;2.22;;;;;;;-146.27;87.26;33120.75;5024879;28;20025;-72
2023/11/10 07:03:21;;;;;;;5.68;1.80;;;;;;;-146.27;88.24;33227.88;5034158;28;20099;-72
2023/11/10 07:05:47;;;;;;;5.55;2.30;;;;;;;-146.27;88.25;33172.34;5020316;28;20021;-71
2023/11/10 07:08:12;;;;;;;4.55;2.22;;;;;;;-146.27;88.64;33212.00;5030851;28;20378;-71
2023/11/10 07:10:47;;;;;;;4.18;1.80;;;;;;;-146.27;87.88;33130.66;5033343;28;20400;-71
2023/11/10 07:13:14;;;;;;;4.95;2.10;;;;;;;-146.27;87.87;33144.56;5027749;28;20544;-71
2023/11/10 07:15:40;;;;;;;5.95;2.40;;;;;;;-146.27;88.70;33172.34;5018336;28;20821;-71
2023/11/10 07:18:06;;;;;;;7.63;2.22;;;;;;;-146.27;88.49;33192.16;5028909;28;20045;-71
2023/11/10 07:20:32;;;;;;;9.77;2.33;;;;;;;-146.27;89.00;33204.06;5022594;28;20025;-71
2023/11/10 07:22:58;;;;;;;7.25;2.33;;;;;;;-146.27;88.35;33112.81;5032578;28;20037;-72
2023/11/10 07:25:28;;;;;;;8.88;2.05;;;;;;;-146.27;88.59;33172.34;5035798;28;20096;-71
2023/11/10 07:27:54;;;;;;;11.93;2.08;;;;;;;-146.27;88.76;33243.75;5043350;28;20086;-71
2023/11/10 07:30:20;;;;;;;7.90;2.20;;;;;;;-146.27;89.21;33180.28;5030845;28;20033;-71
2023/11/10 07:32:45;;;;;;;10.80;2.10;;;;;;;-146.27;88.76;33150.50;5028248;28;20112;-71
2023/11/10 07:35:13;;;;;;;7.78;2.00;;;;;;;-146.27;88.46;33116.78;5029104;28;20063;-72
2023/11/10 07:37:44;;;;;;;9.25;2.55;;;;;;;-146.27;88.13;33186.22;5029766;28;20039;-71
2023/11/10 07:40:12;;;;;;;10.07;3.42;;;;;;;-146.27;87.85;33053.28;5028250;28;20116;-71
2023/11/10 07:42:39;;;;;;;9.52;2.53;;;;;;;-146.27;87.82;33124.72;5034641;28;20033;-71
2023/11/10 07:45:05;;;;;;;7.90;2.40;;;;;;;-146.27;88.81;33150.50;5030867;28;20037;-71
2023/11/10 07:47:31;;;;;;;10.68;3.15;;;;;;;-146.27;88.07;33112.81;5031200;28;20045;-71
2023/11/10 07:49:57;;;;;;;9.13;2.45;;;;;;;-146.27;87.53;33067.19;5029424;28;20028;-71
2023/11/10 07:52:24;;;;;;;11.65;2.42;;;;;;;-146.27;87.89;33106.84;5030035;28;20033;-71
2023/11/10 07:54:50;;;;;;;8.00;2.55;;;;;;;-146.27;87.64;33104.88;5014342;28;20065;-71
2023/11/10 07:57:15;;;;;;;10.98;2.90;;;;;;;-146.27;87.41;33025.50;5027273;28;20029;-72
2023/11/10 07:59:41;;;;;;;8.85;2.05;;;;;;;-146.27;87.93;33091.00;5025977;28;20037;-71
2023/11/10 08:02:06;;;;;;;6.53;2.00;;;;;;;-146.27;87.94;33108.84;5017394;28;20389;-72
2023/11/10 08:04:34;;;;;;;7.00;2.25;;;;;;;-146.27;88.10;33071.16;5030677;28;20035;-71
2023/11/10 08:07:00;;;;;;;3.60;1.73;;;;;;;-146.27;87.86;33172.34;5030710;28;20402;-70
2023/11/10 08:09:26;;;;;;;6.43;1.77;;;;;;;-146.27;87.43;33065.19;5029351;28;20366;-71
2023/11/10 08:11:52;;;;;;;7.18;2.40;;;;;;;-146.27;86.58;33077.09;5038540;28;20021;-70
2023/11/10 08:14:17;;;;;;;7.10;2.33;;;;;;;-146.27;86.59;33085.03;5050504;28;20025;-70
2023/11/10 08:16:42;;;;;;;7.43;1.90;;;;;;;-146.27;87.02;33104.88;5029120;28;20133;-71
2023/11/10 08:19:10;;;;;;;7.55;2.45;;;;;;;-146.27;86.47;33013.63;5023925;28;20105;-70
2023/11/10 08:21:35;;;;;;;7.30;2.15;;;;;;;-146.27;86.53;33118.75;5025686;28;20033;-70
2023/11/10 08:24:00;;;;;;;8.38;2.47;;;;;;;-146.27;86.25;33043.38;5030263;28;20028;-70
2023/11/10 08:26:26;;;;;;;8.32;2.33;;;;;;;-146.27;86.48;33140.59;5031358;28;20025;-70
2023/11/10 08:28:51;;;;;;;8.55;2.17;;;;;;;-146.27;86.40;33136.63;5028806;28;20013;-70
2023/11/10 08:31:17;;;;;;;9.55;2.72;;;;;;;-146.27;86.48;33202.09;5030370;28;20025;-70
2023/11/10 08:33:43;;;;;;;5.63;1.73;;;;;;;-146.27;86.10;33132.66;5030308;28;20503;-71
2023/11/10 08:36:10;;;;;;;12.18;2.13;;;;;;;-146.27;85.91;33166.38;5030323;28;20466;-70
2023/11/10 08:38:35;;;;;;;3.20;1.67;;;;;;;-146.27;85.78;33104.88;5030443;28;20564;-70
2023/11/10 08:41:00;;;;;;;5.68;1.55;;;;;;;-146.27;85.99;33106.84;5031449;28;20044;-72
2023/11/10 08:43:26;;;;;;;6.60;1.77;;;;;;;-146.27;85.37;33029.47;5050263;28;20377;-70
2023/11/10 08:45:51;;;;;;;12.68;1.90;;;;;;;-146.27;86.39;33132.66;5050258;28;20492;-70
2023/11/10 08:48:17;;;;;;;9.95;1.98;;;;;;;-146.27;86.26;33202.09;5050243;28;20438;-70
2023/11/10 08:50:42;;;;;;;7.43;1.83;;;;;;;-146.27;86.26;33184.25;5050153;28;20385;-70
2023/11/10 08:53:09;;;;;;;6.00;1.20;;;;;;;-146.27;85.52;33085.03;5049374;28;20028;-70
2023/11/10 08:55:37;;;;;;;6.60;1.98;;;;;;;-146.27;86.04;33172.34;5045434;28;20032;-70
2023/11/10 08:58:03;;;;;;;3.70;1.25;;;;;;;-146.27;86.27;33168.38;5030036;28;20033;-70
2023/11/10 09:00:28;;;;;;;5.55;1.48;;;;;;;-146.27;85.83;33108.84;5030159;28;20030;-70
2023/11/10 09:02:55;;;;;;;4.25;1.33;;;;;;;-146.27;85.67;33148.53;5030075;28;20095;-70
2023/11/10 09:05:22;;;;;;;10.40;1.48;;;;;;;-146.27;85.49;33110.81;5030185;28;20028;-70
2023/11/10 09:07:48;;;;;;;8.10;1.42;;;;;;;-146.27;84.87;33069.16;5030031;28;20025;-70
2023/11/10 09:10:14;;;;;;;4.03;1.55;;;;;;;-146.27;86.40;33215.97;5025849;28;20145;-71
2023/11/10 09:12:41;;;;;;;3.33;1.63;;;;;;;-146.27;86.02;33148.53;5042874;28;20029;-70
2023/11/10 09:15:07;;;;;;;5.75;2.10;;;;;;;-146.27;85.50;33124.72;5030005;28;20041;-70
2023/11/10 09:17:35;;;;;;;5.05;2.13;;;;;;;-146.27;84.58;33045.34;5029820;28;20512;-70
2023/11/10 09:20:01;;;;;;;7.20;2.13;;;;;;;-146.27;84.83;33053.28;5030077;28;20033;-70
2023/11/10 09:22:26;;;;;;;10.20;3.13;;;;;;;-146.27;84.29;33029.47;5030040;28;20500;-70
2023/11/10 09:24:52;;;;;;;5.15;2.28;;;;;;;-146.27;83.81;33005.69;5029895;28;20025;-70
2023/11/10 09:27:17;;;;;;;7.45;2.58;;;;;;;-146.27;83.75;32993.78;5029023;28;20025;-71
2023/11/10 09:29:44;;;;;;;6.97;2.33;;;;;;;-146.27;84.99;33124.72;5029904;28;20033;-69
2023/11/10 09:32:10;;;;;;;4.55;2.72;;;;;;;-146.27;84.99;33132.66;5029858;28;20108;-70
2023/11/10 09:34:39;;;;;;;3.70;2.65;;;;;;;-146.27;84.98;33120.75;5029852;28;20029;-70
2023/11/10 09:37:06;;;;;;;3.33;2.33;;;;;;;-146.27;84.39;33077.09;5029703;28;20017;-71
2023/11/10 09:39:31;;;;;;;9.15;3.00;;;;;;;-146.27;85.32;33112.81;5024074;28;20108;-70
2023/11/10 09:42:04;;;;;;;7.25;2.60;;;;;;;-146.27;85.67;33124.72;5024288;28;20064;-70
2023/11/10 09:44:30;;;;;;;10.32;3.08;;;;;;;-146.27;84.81;33003.69;5029900;28;20048;-69
2023/11/10 09:46:57;;;;;;;7.45;2.88;;;;;;;-146.27;84.92;33045.34;5029838;28;20017;-70
2023/11/10 09:49:24;;;;;;;5.35;2.25;;;;;;;-146.27;84.37;33007.66;5029699;28;20025;-70
2023/11/10 09:51:51;;;;;;;6.35;2.47;;;;;;;-146.27;85.01;33077.09;5029737;28;20525;-67
2023/11/10 09:54:21;;;;;;;6.85;3.08;;;;;;;-146.27;85.24;33081.06;5027737;28;20021;-68
2023/11/10 09:56:46;;;;;;;10.77;3.05;;;;;;;-146.27;84.81;33007.66;5029473;28;20029;-69
2023/11/10 09:59:13;;;;;;;8.77;2.97;;;;;;;-146.27;84.57;32962.03;5028283;28;20033;-67
2023/11/10 10:01:39;;;;;;;3.88;2.42;;;;;;;-146.27;83.99;32922.34;5029640;28;20592;-66
2023/11/10 10:04:05;;;;;;;6.80;3.17;;;;;;;-146.27;84.48;32977.91;5031089;28;20170;-68
2023/11/10 10:06:33;;;;;;;4.65;2.83;;;;;;;-146.27;84.20;32940.22;5032994;28;20108;-67
2023/11/10 10:09:04;;;;;;;7.07;2.90;;;;;;;-146.27;84.33;33001.72;5033097;28;20853;-66
2023/11/10 10:11:30;;;;;;;5.22;2.47;;;;;;;-146.27;85.42;33071.16;5033201;28;20029;-68
2023/11/10 10:13:56;;;;;;;4.60;2.42;;;;;;;-146.27;84.67;32938.22;5032984;28;20032;-66
2023/11/10 10:16:22;;;;;;;10.07;3.95;;;;;;;-146.27;84.31;32969.97;5033723;28;20100;-66
2023/11/10 10:18:53;;;;;;;5.53;2.95;;;;;;;-146.27;84.75;33017.56;5034177;28;20117;-68
2023/11/10 10:21:19;;;;;;;7.10;2.47;;;;;;;-146.27;84.33;32946.16;5032746;28;20044;-67
2023/11/10 10:23:45;;;;;;;5.72;2.90;;;;;;;-146.27;83.69;32831.09;5031788;28;20037;-66
2023/11/10 10:26:12;;;;;;;13.15;3.33;;;;;;;-146.27;84.64;33041.38;5033617;28;20097;-67
2023/11/10 10:28:39;;;;;;;9.60;3.30;;;;;;;-146.27;84.39;32930.28;5052463;28;20060;-68
2023/11/10 10:31:05;;;;;;;8.50;3.03;;;;;;;-146.27;83.65;32890.59;5052648;28;20036;-67
2023/11/10 10:33:31;;;;;;;5.90;3.00;;;;;;;-146.27;84.75;32991.78;5050406;28;20040;-66
2023/11/10 10:35:57;;;;;;;5.22;2.72;;;;;;;-146.27;83.81;32846.97;5052238;28;20025;-66
2023/11/10 10:38:24;;;;;;;5.75;2.60;;;;;;;-146.27;82.66;32791.41;5039093;28;20112;-67
2023/11/10 10:40:55;;;;;;;9.05;3.13;;;;;;;-146.27;83.39;32906.47;5032647;28;20036;-67
2023/11/10 10:43:21;;;;;;;11.75;3.15;;;;;;;-146.27;84.51;32979.88;5032382;28;20056;-69
2023/11/10 10:45:47;;;;;;;4.63;2.90;;;;;;;-146.27;83.52;32866.81;5032486;28;20049;-66
2023/11/10 10:48:15;;;;;;;9.38;2.90;;;;;;;-146.27;82.93;32797.38;5032196;28;20435;-68
2023/11/10 10:50:43;;;;;;;6.47;2.13;;;;;;;-146.27;83.66;32896.56;5014429;28;20474;-65
2023/11/10 10:53:09;;;;;;;12.50;2.20;;;;;;;-146.27;83.59;32870.78;5029536;28;20048;-68
2023/11/10 10:55:37;;;;;;;7.55;2.50;;;;;;;-146.27;82.99;32843.00;5032357;28;20022;-65
2023/11/10 10:58:03;;;;;;;8.55;2.75;;;;;;;-146.27;82.50;32771.56;5032191;28;20037;-66
2023/11/10 11:00:31;;;;;;;6.75;2.40;;;;;;;-146.27;83.02;32839.03;5032104;28;20051;-67
2023/11/10 11:03:04;;;;;;;4.50;1.80;;;;;;;-146.27;82.84;32813.25;5032285;28;20053;-68
2023/11/10 11:06:06;;;;;;;6.60;2.35;;;;;;;-146.27;84.40;32896.56;5032191;28;20057;-67
2023/11/10 11:08:57;;;;;;;9.07;3.00;;;;;;;-146.27;83.44;32831.09;5034465;28;20025;-67
2023/11/10 11:11:56;;;;;;;9.23;2.10;;;;;;;-146.27;83.46;32795.38;5031941;28;20120;-67
2023/11/10 11:14:33;;;;;;;8.02;1.90;;;;;;;-146.27;83.05;32723.97;5031793;28;20033;-66